Table Rock, Nebraska
Current Conditions -  °F | °C
As of 5:53 AM on Thursday 27 Nov 2014 (Local Time) from KFNB Reporting Station
Broken Clouds Broken Clouds  
Wind Chill: 10°   Ceiling: 9000
Heat Index: 20°   Visibility: 10mi
Dew Point: 15°   Wind: 8mph
Humidity: 81%   Direction: 20°NNE
Pressure: 30.48"   Gusts: NA
Location:  40.18°N, 96.1°W
Report Text: KFNB 271153Z AUTO 02007KT 10SM SCT014 BKN090 M07/M09 A3048 RMK AO2 SLP335 70001 T10671094 11044 21067 58001
Loading
Personal Weather Stations






























Interactive Weather Map New forecast layout! Learn more

10-Day Weather Forecast

Advertisements
Track Severe Weather on mobile